Yasemin — 9HA2114 — position and weather

sailwx.info

Track history (hours):
 
Tides and Currents Weather Stations Pressure Air Temp Water Temp Dewpoint Dewpoint Depression Visibility Wind Speed Wind Dir Waves Ship Positions

Yasemin

Last reported at 2015-Jan-26 06:09 UTC. Time now 2015-Jan-27 10:28 UTC.
Position N 39°06' W 009°51'.

Length 105 m; draft 7.2 m.

Type: Cargo ship. MMSI: 249988000.

Date/timePositionNaut miles runAvg speedWind from/ knotsBaromVisibWave heightAir tempDewpointWater temp
2015-Jan-26 06:09N 39°06' W 009°51'710.5
2015-Jan-26 05:32N 38°59' W 009°51'1010.6
2015-Jan-26 04:33N 38°49' W 009°51'1010.2
2015-Jan-26 03:32N 38°38' W 009°49'1010.0
2015-Jan-26 02:33N 38°29' W 009°47'1010.0
2015-Jan-26 01:33N 38°19' W 009°45'1010.1
2015-Jan-26 00:33N 38°09' W 009°42'1010.4
2015-Jan-25 23:33N 37°59' W 009°40'1010.2
2015-Jan-25 22:33N 37°49' W 009°36'1010.4
2015-Jan-25 21:33N 37°39' W 009°32'1110.7
2015-Jan-25 20:33N 37°29' W 009°29'1110.8
2015-Jan-25 19:33N 37°18' W 009°26'1110.7
2015-Jan-25 18:33N 37°08' W 009°23'1110.7
2015-Jan-25 17:33N 36°57' W 009°20'1110.3
2015-Jan-25 16:27N 36°48' W 009°13'2110.7
2015-Jan-25 14:32N 36°39' W 008°49'1111.3
2015-Jan-25 13:33N 36°36' W 008°36'15511.5
2015-Jan-25 00:04N 35°59' W 005°29'4 8.4
2015-Jan-24 23:33N 35°59' W 005°24'5 5.1
2015-Jan-24 22:33N 35°55' W 005°20'0 0.1
2015-Jan-24 21:33N 35°55' W 005°20'0 0.1
2015-Jan-24 20:33N 35°55' W 005°20'0 0.0
2015-Jan-24 19:33N 35°55' W 005°20'0 0.0
2015-Jan-24 18:33N 35°55' W 005°20'0 0.1
2015-Jan-24 17:33N 35°55' W 005°20'0 0.0
2015-Jan-24 16:33N 35°55' W 005°20'0 0.1
2015-Jan-24 15:33N 35°55' W 005°20'0 0.1
2015-Jan-24 14:33N 35°55' W 005°20'4 4.1
2015-Jan-24 13:33N 35°56' W 005°15'22611.3
2015-Jan-23 17:33N 37°20' W 000°55'1312.8
2015-Jan-23 16:33N 37°28' W 000°42'2712.4
2015-Jan-23 14:24N 37°49' W 000°21'16711.9
2015-Jan-23 00:25N 40°26' E 000°54'  
2015-Jan-18 23:19N 37°31' W 000°33'912.2
2015-Jan-18 22:33N 37°25' W 000°42'1312.1
2015-Jan-18 21:29N 37°17' W 000°54'438 9.7
2015-Jan-17 00:33N 38°23' W 010°02'1511.3
2015-Jan-16 23:15N 38°38' W 010°05'811.3
2015-Jan-16 22:31N 38°46' W 010°07'  
Track history (hours):
 
Tides and Currents Weather Stations Pressure Air Temp Water Temp Dewpoint Dewpoint Depression Visibility Wind Speed Wind Dir Waves Ship Positions

Yasemin

Last reported at 2015-Jan-26 06:09 UTC. Time now 2015-Jan-27 10:28 UTC.
Position N 39°06' W 009°51'.

Length 105 m; draft 7.2 m.

Type: Cargo ship. MMSI: 249988000.

Date/timePositionNaut miles runAvg speedWind from/ knotsBaromVisibWave heightAir tempDewpointWater temp
2015-Jan-26 06:09N 39°06' W 009°51'710.5
2015-Jan-26 05:32N 38°59' W 009°51'1010.6
2015-Jan-26 04:33N 38°49' W 009°51'1010.2
2015-Jan-26 03:32N 38°38' W 009°49'1010.0
2015-Jan-26 02:33N 38°29' W 009°47'1010.0
2015-Jan-26 01:33N 38°19' W 009°45'1010.1
2015-Jan-26 00:33N 38°09' W 009°42'1010.4
2015-Jan-25 23:33N 37°59' W 009°40'1010.2
2015-Jan-25 22:33N 37°49' W 009°36'1010.4
2015-Jan-25 21:33N 37°39' W 009°32'1110.7
2015-Jan-25 20:33N 37°29' W 009°29'1110.8
2015-Jan-25 19:33N 37°18' W 009°26'1110.7
2015-Jan-25 18:33N 37°08' W 009°23'1110.7
2015-Jan-25 17:33N 36°57' W 009°20'1110.3
2015-Jan-25 16:27N 36°48' W 009°13'2110.7
2015-Jan-25 14:32N 36°39' W 008°49'1111.3
2015-Jan-25 13:33N 36°36' W 008°36'15511.5
2015-Jan-25 00:04N 35°59' W 005°29'4 8.4
2015-Jan-24 23:33N 35°59' W 005°24'5 5.1
2015-Jan-24 22:33N 35°55' W 005°20'0 0.1
2015-Jan-24 21:33N 35°55' W 005°20'0 0.1
2015-Jan-24 20:33N 35°55' W 005°20'0 0.0
2015-Jan-24 19:33N 35°55' W 005°20'0 0.0
2015-Jan-24 18:33N 35°55' W 005°20'0 0.1
2015-Jan-24 17:33N 35°55' W 005°20'0 0.0
2015-Jan-24 16:33N 35°55' W 005°20'0 0.1
2015-Jan-24 15:33N 35°55' W 005°20'0 0.1
2015-Jan-24 14:33N 35°55' W 005°20'4 4.1
2015-Jan-24 13:33N 35°56' W 005°15'22611.3
2015-Jan-23 17:33N 37°20' W 000°55'1312.8
2015-Jan-23 16:33N 37°28' W 000°42'2712.4
2015-Jan-23 14:24N 37°49' W 000°21'16711.9
2015-Jan-23 00:25N 40°26' E 000°54'  
2015-Jan-18 23:19N 37°31' W 000°33'912.2
2015-Jan-18 22:33N 37°25' W 000°42'1312.1
2015-Jan-18 21:29N 37°17' W 000°54'438 9.7
2015-Jan-17 00:33N 38°23' W 010°02'1511.3
2015-Jan-16 23:15N 38°38' W 010°05'811.3
2015-Jan-16 22:31N 38°46' W 010°07'  

Dump ship's entire track history